createdAt,value
2019-04-16T00:00:28.915Z,19.32
2019-04-16T00:01:28.906Z,19.32
2019-04-16T00:02:28.929Z,19.31
2019-04-16T00:03:29.025Z,19.31
2019-04-16T00:04:29.399Z,19.31
2019-04-16T00:05:30.083Z,19.31
2019-04-16T00:06:29.016Z,19.31
2019-04-16T00:07:28.978Z,19.3
2019-04-16T00:08:28.986Z,19.29
2019-04-16T00:09:28.964Z,19.29
2019-04-16T00:10:28.994Z,19.28
2019-04-16T00:11:28.878Z,19.27
2019-04-16T00:12:28.909Z,19.28
2019-04-16T00:13:29.051Z,19.28
2019-04-16T00:14:29.044Z,19.27
2019-04-16T00:15:28.764Z,19.28
2019-04-16T00:16:28.711Z,19.27
2019-04-16T00:17:28.886Z,19.27
2019-04-16T00:18:28.848Z,19.27
2019-04-16T00:19:28.789Z,19.27
2019-04-16T00:20:29.020Z,19.27
2019-04-16T00:21:28.837Z,19.26
2019-04-16T00:22:28.879Z,19.26
2019-04-16T00:23:28.786Z,19.25
2019-04-16T00:24:28.877Z,19.26
2019-04-16T00:25:28.881Z,19.26
2019-04-16T00:26:28.915Z,19.25
2019-04-16T00:27:29.427Z,19.24
2019-04-16T00:28:30.665Z,19.25
2019-04-16T00:29:32.535Z,19.25
2019-04-16T00:30:28.956Z,19.24
2019-04-16T00:31:29.102Z,19.23
2019-04-16T00:32:28.968Z,19.24
2019-04-16T00:33:28.862Z,19.24
2019-04-16T00:34:29.020Z,19.23
2019-04-16T00:35:28.799Z,19.23
2019-04-16T00:36:28.874Z,19.22
2019-04-16T00:37:28.924Z,19.23
2019-04-16T00:38:39.948Z,19.22
2019-04-16T00:39:28.842Z,19.22
2019-04-16T00:40:28.954Z,19.21
2019-04-16T00:41:28.875Z,19.21
2019-04-16T00:42:28.880Z,19.2
2019-04-16T00:43:28.777Z,19.21
2019-04-16T00:44:28.911Z,19.2
2019-04-16T00:45:28.938Z,19.2
2019-04-16T00:46:28.928Z,19.2
2019-04-16T00:47:28.995Z,19.2
2019-04-16T00:48:29.001Z,19.2
2019-04-16T00:49:29.044Z,19.2
2019-04-16T00:50:28.986Z,19.19
2019-04-16T00:51:28.990Z,19.19
2019-04-16T00:52:29.029Z,19.18
2019-04-16T00:53:29.021Z,19.18
2019-04-16T00:54:28.753Z,19.18
2019-04-16T00:55:28.759Z,19.19
2019-04-16T00:56:28.836Z,19.18
2019-04-16T00:57:28.792Z,19.18
2019-04-16T00:58:28.817Z,19.17
2019-04-16T00:59:28.957Z,19.17
2019-04-16T01:00:30.558Z,19.16
2019-04-16T01:01:28.841Z,19.16
2019-04-16T01:02:28.960Z,19.17
2019-04-16T01:03:28.801Z,19.17
2019-04-16T01:04:28.873Z,19.16
2019-04-16T01:05:28.877Z,19.16
2019-04-16T01:06:28.896Z,19.16
2019-04-16T01:07:28.935Z,19.16
2019-04-16T01:08:28.854Z,19.15
2019-04-16T01:09:29.069Z,19.14
2019-04-16T01:10:28.999Z,19.15
2019-04-16T01:11:29.057Z,19.15
2019-04-16T01:12:28.989Z,19.14
2019-04-16T01:13:29.193Z,19.14
2019-04-16T01:14:28.911Z,19.14
2019-04-16T01:15:29.157Z,19.13
2019-04-16T01:16:30.237Z,19.14
2019-04-16T01:17:28.925Z,19.12
2019-04-16T01:18:28.815Z,19.12
2019-04-16T01:19:28.735Z,19.12
2019-04-16T01:20:28.990Z,19.13
2019-04-16T01:21:28.971Z,19.12
2019-04-16T01:22:28.944Z,19.12
2019-04-16T01:23:28.822Z,19.11
2019-04-16T01:24:29.011Z,19.11
2019-04-16T01:25:28.927Z,19.11
2019-04-16T01:26:28.960Z,19.1
2019-04-16T01:27:29.320Z,19.1
2019-04-16T01:28:29.338Z,19.11
2019-04-16T01:29:33.536Z,19.11
2019-04-16T01:30:29.379Z,19.1
2019-04-16T01:31:29.029Z,19.09
2019-04-16T01:32:29.015Z,19.1
2019-04-16T01:33:28.745Z,19.09
2019-04-16T01:34:28.805Z,19.09
2019-04-16T01:35:28.749Z,19.09
2019-04-16T01:36:28.819Z,19.08
2019-04-16T01:37:28.756Z,19.09
2019-04-16T01:38:28.845Z,19.07
2019-04-16T01:39:28.647Z,19.07
2019-04-16T01:40:28.749Z,19.07
2019-04-16T01:41:28.880Z,19.08
2019-04-16T01:42:28.855Z,19.08
2019-04-16T01:43:28.732Z,19.06
2019-04-16T01:44:29.672Z,19.07
2019-04-16T01:45:29.751Z,19.06
2019-04-16T01:46:32.504Z,19.06
2019-04-16T01:47:28.907Z,19.06
2019-04-16T01:48:28.923Z,19.06
2019-04-16T01:49:28.902Z,19.06
2019-04-16T01:50:29.008Z,19.06
2019-04-16T01:51:29.010Z,19.05
2019-04-16T01:52:29.238Z,19.06
2019-04-16T01:53:28.842Z,19.05
2019-04-16T01:54:28.772Z,19.04
2019-04-16T01:55:28.722Z,19.04
2019-04-16T01:56:29.120Z,19.04
2019-04-16T01:57:30.696Z,19.03
2019-04-16T01:58:33.488Z,19.04
2019-04-16T01:59:28.817Z,19.03
2019-04-16T02:00:28.864Z,19.03
2019-04-16T02:01:28.861Z,19.03
2019-04-16T02:02:28.873Z,19.03
2019-04-16T02:03:28.549Z,19.03
2019-04-16T02:04:28.906Z,19.02
2019-04-16T02:05:28.775Z,19.02
2019-04-16T02:06:29.003Z,19.02
2019-04-16T02:07:28.768Z,19.01
2019-04-16T02:08:31.033Z,19.02
2019-04-16T02:09:34.042Z,19.02
2019-04-16T02:10:28.970Z,19.01
2019-04-16T02:11:28.885Z,19.01
2019-04-16T02:12:28.969Z,19.01
2019-04-16T02:13:28.727Z,19.01
2019-04-16T02:14:28.702Z,19
2019-04-16T02:15:28.733Z,19
2019-04-16T02:16:28.745Z,19
2019-04-16T02:17:28.789Z,19
2019-04-16T02:18:29.638Z,19
2019-04-16T02:19:32.248Z,19
2019-04-16T02:20:28.799Z,19
2019-04-16T02:21:28.798Z,19
2019-04-16T02:22:28.819Z,18.99
2019-04-16T02:23:28.787Z,18.99
2019-04-16T02:24:28.868Z,18.99
2019-04-16T02:25:28.861Z,18.99
2019-04-16T02:26:28.899Z,18.98
2019-04-16T02:27:28.765Z,18.98
2019-04-16T02:28:29.080Z,18.98
2019-04-16T02:29:30.446Z,18.97
2019-04-16T02:30:28.931Z,18.97
2019-04-16T02:31:28.737Z,18.98
2019-04-16T02:32:28.976Z,18.97
2019-04-16T02:33:28.878Z,18.97
2019-04-16T02:34:28.761Z,18.97
2019-04-16T02:35:29.233Z,18.96
2019-04-16T02:36:28.824Z,18.96
2019-04-16T02:37:35.298Z,18.96
2019-04-16T02:38:28.929Z,18.96
2019-04-16T02:39:46.906Z,18.97
2019-04-16T02:40:28.857Z,18.96
2019-04-16T02:41:28.861Z,18.96
2019-04-16T02:42:31.864Z,18.95
2019-04-16T02:43:28.732Z,18.95
2019-04-16T02:44:28.898Z,18.94
2019-04-16T02:45:28.901Z,18.95
2019-04-16T02:46:32.023Z,18.95
2019-04-16T02:47:29.006Z,18.95
2019-04-16T02:48:29.061Z,18.94
2019-04-16T02:49:29.223Z,18.94
2019-04-16T02:50:31.862Z,18.94
2019-04-16T02:51:29.077Z,18.94
2019-04-16T02:52:29.107Z,18.94
2019-04-16T02:53:28.737Z,18.94
2019-04-16T02:54:33.735Z,18.93
2019-04-16T02:55:28.767Z,18.93
2019-04-16T02:56:29.259Z,18.93
2019-04-16T02:57:29.207Z,18.93
2019-04-16T02:58:33.863Z,18.92
2019-04-16T02:59:28.700Z,18.93
2019-04-16T03:00:28.774Z,18.93
2019-04-16T03:01:28.785Z,18.92
2019-04-16T03:02:28.827Z,18.92
2019-04-16T03:03:28.741Z,18.92
2019-04-16T03:04:28.971Z,18.92
2019-04-16T03:05:29.699Z,18.92
2019-04-16T03:06:31.592Z,18.91
2019-04-16T03:07:28.898Z,18.91
2019-04-16T03:08:28.906Z,18.91
2019-04-16T03:09:28.911Z,18.91
2019-04-16T03:10:28.963Z,18.9
2019-04-16T03:11:29.010Z,18.91
2019-04-16T03:12:28.955Z,18.9
2019-04-16T03:13:28.833Z,18.9
2019-04-16T03:14:29.977Z,18.9
2019-04-16T03:15:30.236Z,18.9
2019-04-16T03:16:28.771Z,18.89
2019-04-16T03:17:28.765Z,18.89
2019-04-16T03:18:29.084Z,18.89
2019-04-16T03:19:28.819Z,18.89
2019-04-16T03:20:28.942Z,18.89
2019-04-16T03:21:28.816Z,18.89
2019-04-16T03:22:30.514Z,18.88
2019-04-16T03:23:28.569Z,18.88
2019-04-16T03:24:28.895Z,18.87
2019-04-16T03:25:28.896Z,18.87
2019-04-16T03:26:29.017Z,18.87
2019-04-16T03:27:28.885Z,18.87
2019-04-16T03:28:28.914Z,18.88
2019-04-16T03:29:30.410Z,18.86
2019-04-16T03:30:28.928Z,18.87
2019-04-16T03:31:28.734Z,18.87
2019-04-16T03:32:33.096Z,18.86
2019-04-16T03:33:29.039Z,18.87
2019-04-16T03:34:28.663Z,18.86
2019-04-16T03:35:28.837Z,18.87
2019-04-16T03:36:29.374Z,18.86
2019-04-16T03:37:30.207Z,18.87
2019-04-16T03:38:28.754Z,18.87
2019-04-16T03:39:28.826Z,18.87
2019-04-16T03:40:29.512Z,18.87
2019-04-16T03:41:28.781Z,18.87
2019-04-16T03:42:28.837Z,18.87
2019-04-16T03:43:29.440Z,18.88
2019-04-16T03:44:28.818Z,18.87
2019-04-16T03:45:28.825Z,18.88
2019-04-16T03:46:28.804Z,18.89
2019-04-16T03:47:28.743Z,18.9
2019-04-16T03:48:28.989Z,18.9
2019-04-16T03:49:28.736Z,18.9
2019-04-16T03:50:31.293Z,18.91
2019-04-16T03:51:28.767Z,18.92
2019-04-16T03:52:28.964Z,18.93
2019-04-16T03:53:28.858Z,18.94
2019-04-16T03:54:29.017Z,18.94
2019-04-16T03:55:28.800Z,18.94
2019-04-16T03:56:30.484Z,18.95
2019-04-16T03:57:32.592Z,18.96
2019-04-16T03:58:28.814Z,18.97
2019-04-16T03:59:32.153Z,18.98
2019-04-16T04:00:28.867Z,19
2019-04-16T04:01:29.819Z,19.01
2019-04-16T04:02:28.837Z,19.03
2019-04-16T04:03:28.780Z,19.04
2019-04-16T04:04:29.935Z,19.06
2019-04-16T04:05:28.839Z,19.06
2019-04-16T04:06:28.924Z,19.08
2019-04-16T04:07:28.947Z,19.1
2019-04-16T04:08:28.927Z,19.12
2019-04-16T04:09:28.879Z,19.14
2019-04-16T04:10:31.263Z,19.15
2019-04-16T04:11:28.972Z,19.16
2019-04-16T04:12:28.831Z,19.18
2019-04-16T04:13:29.247Z,19.19
2019-04-16T04:14:28.683Z,19.21
2019-04-16T04:15:29.021Z,19.23
2019-04-16T04:16:30.474Z,19.24
2019-04-16T04:17:28.757Z,19.25
2019-04-16T04:18:28.671Z,19.26
2019-04-16T04:19:28.678Z,19.28
2019-04-16T04:20:28.724Z,19.3
2019-04-16T04:21:28.761Z,19.3
2019-04-16T04:22:29.165Z,19.32
2019-04-16T04:23:29.400Z,19.34
2019-04-16T04:24:31.351Z,19.35
2019-04-16T04:25:28.768Z,19.37
2019-04-16T04:26:28.809Z,19.38
2019-04-16T04:27:28.811Z,19.4
2019-04-16T04:28:28.831Z,19.41
2019-04-16T04:29:28.947Z,19.42
2019-04-16T04:30:29.583Z,19.43
2019-04-16T04:31:31.950Z,19.45
2019-04-16T04:32:28.812Z,19.46
2019-04-16T04:33:28.959Z,19.47
2019-04-16T04:34:28.835Z,19.48
2019-04-16T04:35:28.731Z,19.49
2019-04-16T04:36:28.878Z,19.5
2019-04-16T04:37:31.185Z,19.52
2019-04-16T04:38:29.046Z,19.53
2019-04-16T04:39:28.909Z,19.55
2019-04-16T04:40:28.826Z,19.55
2019-04-16T04:41:28.732Z,19.56
2019-04-16T04:42:28.998Z,19.57
2019-04-16T04:43:29.326Z,19.6
2019-04-16T04:44:28.738Z,19.59
2019-04-16T04:45:28.885Z,19.61
2019-04-16T04:46:28.712Z,19.62
2019-04-16T04:47:28.850Z,19.63
2019-04-16T04:48:28.809Z,19.65
2019-04-16T04:49:30.336Z,19.66
2019-04-16T04:50:28.930Z,19.65
2019-04-16T04:51:28.835Z,19.66
2019-04-16T04:52:28.849Z,19.68
2019-04-16T04:53:28.866Z,19.69
2019-04-16T04:54:28.975Z,19.7
2019-04-16T04:55:28.987Z,19.7
2019-04-16T04:56:29.050Z,19.71
2019-04-16T04:57:31.117Z,19.72
2019-04-16T04:58:33.670Z,19.74
2019-04-16T04:59:28.956Z,19.74
2019-04-16T05:00:28.744Z,19.76
2019-04-16T05:01:28.691Z,19.76
2019-04-16T05:02:28.738Z,19.77
2019-04-16T05:03:28.713Z,19.77
2019-04-16T05:04:28.712Z,19.78
2019-04-16T05:05:28.982Z,19.79
2019-04-16T05:06:28.791Z,19.8
2019-04-16T05:07:29.369Z,19.81
2019-04-16T05:08:29.328Z,19.82
2019-04-16T05:09:29.423Z,19.81
2019-04-16T05:10:28.773Z,19.82
2019-04-16T05:11:28.792Z,19.84
2019-04-16T05:12:28.905Z,19.85
2019-04-16T05:13:28.814Z,19.84
2019-04-16T05:14:28.802Z,19.85
2019-04-16T05:15:29.309Z,19.87
2019-04-16T05:16:31.445Z,19.86
2019-04-16T05:17:28.825Z,19.85
2019-04-16T05:18:28.801Z,19.86
2019-04-16T05:19:28.986Z,19.87
2019-04-16T05:20:29.899Z,19.88
2019-04-16T05:21:28.829Z,19.87
2019-04-16T05:22:28.701Z,19.88
2019-04-16T05:23:28.876Z,19.9
2019-04-16T05:24:29.783Z,19.89
2019-04-16T05:25:32.897Z,19.9
2019-04-16T05:26:29.020Z,19.9
2019-04-16T05:27:29.397Z,19.92
2019-04-16T05:28:28.755Z,19.91
2019-04-16T05:29:28.819Z,19.91
2019-04-16T05:30:28.733Z,19.92
2019-04-16T05:31:31.061Z,19.92
2019-04-16T05:32:32.691Z,19.93
2019-04-16T05:33:28.767Z,19.93
2019-04-16T05:34:28.665Z,19.93
2019-04-16T05:35:28.820Z,19.93
2019-04-16T05:36:28.803Z,19.94
2019-04-16T05:37:28.946Z,19.94
2019-04-16T05:38:28.908Z,19.95
2019-04-16T05:39:28.961Z,19.95
2019-04-16T05:40:34.190Z,19.95
2019-04-16T05:41:28.876Z,19.96
2019-04-16T05:42:29.004Z,19.96
2019-04-16T05:43:30.200Z,19.96
2019-04-16T05:44:32.780Z,19.97
2019-04-16T05:45:28.706Z,19.97
2019-04-16T05:46:28.714Z,19.97
2019-04-16T05:47:28.693Z,19.97
2019-04-16T05:48:29.074Z,19.99
2019-04-16T05:49:28.695Z,19.99
2019-04-16T05:50:29.926Z,19.99
2019-04-16T05:51:31.403Z,19.99
2019-04-16T05:52:28.714Z,19.99
2019-04-16T05:53:28.947Z,20
2019-04-16T05:54:28.579Z,20
2019-04-16T05:55:28.747Z,20
2019-04-16T05:56:28.890Z,20
2019-04-16T05:57:28.767Z,20.01
2019-04-16T05:58:30.703Z,20.01
2019-04-16T05:59:33.459Z,20.01
2019-04-16T06:00:28.969Z,20.01
2019-04-16T06:01:28.804Z,20.01
2019-04-16T06:02:28.650Z,20.01
2019-04-16T06:03:28.873Z,19.96
2019-04-16T06:04:28.826Z,19.76
2019-04-16T06:05:29.030Z,19.63
2019-04-16T06:06:31.681Z,19.51
2019-04-16T06:07:30.171Z,19.39
2019-04-16T06:08:28.760Z,19.32
2019-04-16T06:09:29.022Z,19.19
2019-04-16T06:10:29.026Z,19.09
2019-04-16T06:11:35.248Z,19.06
2019-04-16T06:12:28.788Z,19.01
2019-04-16T06:13:28.829Z,18.96
2019-04-16T06:14:28.746Z,18.89
2019-04-16T06:15:28.941Z,18.86
2019-04-16T06:16:30.964Z,18.9
2019-04-16T06:17:31.705Z,19
2019-04-16T06:18:28.516Z,19.07
2019-04-16T06:19:28.806Z,19.11
2019-04-16T06:20:28.992Z,19.16
2019-04-16T06:21:28.900Z,19.21
2019-04-16T06:22:30.097Z,19.24
2019-04-16T06:23:31.673Z,19.27
2019-04-16T06:24:28.945Z,19.3
2019-04-16T06:25:28.902Z,19.32
2019-04-16T06:26:28.891Z,19.35
2019-04-16T06:27:28.889Z,19.37
2019-04-16T06:28:29.006Z,19.39
2019-04-16T06:29:29.470Z,19.4
2019-04-16T06:30:32.722Z,19.42
2019-04-16T06:31:29.004Z,19.44
2019-04-16T06:32:28.957Z,19.45
2019-04-16T06:33:28.655Z,19.47
2019-04-16T06:34:28.710Z,19.48
2019-04-16T06:35:42.241Z,19.49
2019-04-16T06:36:28.709Z,19.5
2019-04-16T06:37:28.711Z,19.5
2019-04-16T06:38:28.876Z,19.52
2019-04-16T06:39:29.685Z,19.52
2019-04-16T06:40:31.639Z,19.52
2019-04-16T06:41:40.657Z,19.52
2019-04-16T06:42:28.678Z,19.53
2019-04-16T06:43:28.767Z,19.54
2019-04-16T06:44:30.200Z,19.54
2019-04-16T06:45:28.896Z,19.55
2019-04-16T06:46:28.583Z,19.55
2019-04-16T06:47:28.818Z,19.55
2019-04-16T06:48:28.853Z,19.55
2019-04-16T06:49:28.911Z,19.56
2019-04-16T06:50:31.818Z,19.55
2019-04-16T06:51:31.622Z,19.55
2019-04-16T06:52:28.813Z,19.56
2019-04-16T06:53:30.504Z,19.56
2019-04-16T06:54:31.686Z,19.56
2019-04-16T06:55:28.819Z,19.56
2019-04-16T06:56:28.759Z,19.56
2019-04-16T06:57:28.748Z,19.57
2019-04-16T06:58:28.640Z,19.57
2019-04-16T06:59:30.352Z,19.56
2019-04-16T07:00:33.651Z,19.56
2019-04-16T07:01:28.837Z,19.55
2019-04-16T07:02:28.711Z,19.56
2019-04-16T07:03:28.796Z,19.56
2019-04-16T07:04:30.412Z,19.56
2019-04-16T07:05:31.855Z,19.56
2019-04-16T07:06:28.883Z,19.56
2019-04-16T07:07:39.432Z,19.55
2019-04-16T07:08:37.346Z,19.56
2019-04-16T07:09:40.708Z,19.55
2019-04-16T07:10:31.270Z,19.55
2019-04-16T07:11:28.875Z,19.56
2019-04-16T07:12:28.884Z,19.55
2019-04-16T07:13:28.869Z,19.55
2019-04-16T07:14:29.288Z,19.55
2019-04-16T07:15:29.264Z,19.54
2019-04-16T07:16:29.108Z,19.54
2019-04-16T07:17:32.826Z,19.53
2019-04-16T07:18:28.672Z,19.54
2019-04-16T07:19:28.666Z,19.53
2019-04-16T07:20:29.362Z,19.52
2019-04-16T07:21:28.768Z,19.52
2019-04-16T07:22:28.724Z,19.52
2019-04-16T07:23:28.704Z,19.52
2019-04-16T07:24:30.516Z,19.51
2019-04-16T07:25:29.615Z,19.51
2019-04-16T07:26:28.629Z,19.52
2019-04-16T07:27:28.792Z,19.51
2019-04-16T07:28:28.881Z,19.5
2019-04-16T07:29:32.511Z,19.5
2019-04-16T07:30:28.767Z,19.5
2019-04-16T07:31:33.059Z,19.49
2019-04-16T07:32:28.899Z,19.49
2019-04-16T07:33:28.815Z,19.5
2019-04-16T07:34:28.723Z,19.48
2019-04-16T07:35:28.862Z,19.49
2019-04-16T07:36:29.013Z,19.48
2019-04-16T07:37:32.781Z,19.48
2019-04-16T07:38:28.637Z,19.47
2019-04-16T07:39:29.465Z,19.48
2019-04-16T07:40:28.679Z,19.47
2019-04-16T07:41:28.789Z,19.47
2019-04-16T07:42:28.695Z,19.48
2019-04-16T07:43:31.209Z,19.46
2019-04-16T07:44:28.856Z,19.47
2019-04-16T07:45:28.785Z,19.47
2019-04-16T07:46:28.797Z,19.46
2019-04-16T07:47:28.720Z,19.46
2019-04-16T07:48:28.836Z,19.45
2019-04-16T07:49:28.779Z,19.45
2019-04-16T07:50:29.461Z,19.45
2019-04-16T07:51:28.811Z,19.45
2019-04-16T07:52:28.821Z,19.45
2019-04-16T07:53:28.910Z,19.44
2019-04-16T07:54:28.777Z,19.44
2019-04-16T07:55:28.815Z,19.43
2019-04-16T07:56:28.896Z,19.44
2019-04-16T07:57:29.188Z,19.43
2019-04-16T07:58:29.085Z,19.44
2019-04-16T07:59:31.947Z,19.43
2019-04-16T08:00:28.630Z,19.43
2019-04-16T08:01:28.654Z,19.42
2019-04-16T08:02:28.715Z,19.42
2019-04-16T08:03:28.656Z,19.42
2019-04-16T08:04:29.446Z,19.41
2019-04-16T08:05:28.753Z,19.4
2019-04-16T08:06:28.643Z,19.4
2019-04-16T08:07:29.046Z,19.4
2019-04-16T08:08:28.819Z,19.41
2019-04-16T08:09:29.771Z,19.4
2019-04-16T08:10:28.615Z,19.39
2019-04-16T08:11:28.739Z,19.4
2019-04-16T08:12:30.223Z,19.39
2019-04-16T08:13:33.011Z,19.38
2019-04-16T08:14:28.630Z,19.38
2019-04-16T08:15:28.797Z,19.38
2019-04-16T08:16:28.812Z,19.37
2019-04-16T08:17:28.839Z,19.38
2019-04-16T08:18:28.613Z,19.38
2019-04-16T08:19:36.463Z,19.38
2019-04-16T08:20:28.850Z,19.37
2019-04-16T08:21:28.836Z,19.36
2019-04-16T08:22:29.090Z,19.36
2019-04-16T08:23:28.606Z,19.36
2019-04-16T08:24:28.585Z,19.35
2019-04-16T08:25:33.479Z,19.35
2019-04-16T08:26:28.698Z,19.35
2019-04-16T08:27:28.657Z,19.35
2019-04-16T08:28:28.772Z,19.35
2019-04-16T08:29:28.756Z,19.35
2019-04-16T08:30:34.042Z,19.33
2019-04-16T08:31:28.615Z,19.34
2019-04-16T08:32:28.852Z,19.33
2019-04-16T08:33:29.323Z,19.33
2019-04-16T08:34:29.057Z,19.34
2019-04-16T08:35:28.797Z,19.32
2019-04-16T08:36:28.840Z,19.32
2019-04-16T08:37:28.864Z,19.32
2019-04-16T08:38:28.590Z,19.32
2019-04-16T08:39:28.968Z,19.31
2019-04-16T08:40:29.086Z,19.32
2019-04-16T08:41:28.997Z,19.3
2019-04-16T08:42:29.543Z,19.31
2019-04-16T08:43:29.515Z,19.31
2019-04-16T08:44:28.641Z,19.3
2019-04-16T08:45:28.690Z,19.3
2019-04-16T08:46:28.599Z,19.3
2019-04-16T08:47:28.516Z,19.29
2019-04-16T08:48:28.625Z,19.29
2019-04-16T08:49:28.770Z,19.29
2019-04-16T08:50:28.659Z,19.29
2019-04-16T08:51:30.529Z,19.29
2019-04-16T08:52:28.668Z,19.28
2019-04-16T08:53:28.683Z,19.28
2019-04-16T08:54:28.686Z,19.29
2019-04-16T08:55:28.840Z,19.28
2019-04-16T08:56:28.699Z,19.28
2019-04-16T08:57:31.401Z,19.27
2019-04-16T08:58:28.501Z,19.27
2019-04-16T08:59:28.843Z,19.27
2019-04-16T09:00:28.843Z,19.26
2019-04-16T09:01:28.776Z,19.25
2019-04-16T09:02:28.965Z,19.26
2019-04-16T09:03:29.945Z,19.26
2019-04-16T09:04:33.959Z,19.25
2019-04-16T09:05:28.853Z,19.24
2019-04-16T09:06:29.007Z,19.25
2019-04-16T09:07:28.725Z,19.24
2019-04-16T09:08:28.640Z,19.24
2019-04-16T09:09:28.665Z,19.24
2019-04-16T09:10:30.834Z,19.25
2019-04-16T09:11:28.747Z,19.23
2019-04-16T09:12:28.619Z,19.24
2019-04-16T09:13:28.656Z,19.23
2019-04-16T09:14:28.678Z,19.23
2019-04-16T09:15:28.742Z,19.23
2019-04-16T09:16:28.710Z,19.22
2019-04-16T09:17:28.810Z,19.23
2019-04-16T09:18:28.698Z,19.22
2019-04-16T09:19:28.773Z,19.22
2019-04-16T09:20:28.813Z,19.21
2019-04-16T09:21:28.758Z,19.22
2019-04-16T09:22:28.781Z,19.22
2019-04-16T09:23:28.873Z,19.21
2019-04-16T09:24:29.103Z,19.2
2019-04-16T09:25:28.788Z,19.21
2019-04-16T09:26:29.216Z,19.21
2019-04-16T09:27:31.105Z,19.2
2019-04-16T09:28:31.038Z,19.2
2019-04-16T09:29:28.559Z,19.2
2019-04-16T09:30:28.566Z,19.2
2019-04-16T09:31:28.586Z,19.19
2019-04-16T09:32:28.609Z,19.19
2019-04-16T09:33:30.311Z,19.19
2019-04-16T09:34:28.688Z,19.18
2019-04-16T09:35:28.626Z,19.19
2019-04-16T09:36:28.647Z,19.18
2019-04-16T09:37:29.306Z,19.19
2019-04-16T09:38:28.658Z,19.17
2019-04-16T09:39:28.701Z,19.17
2019-04-16T09:40:28.658Z,19.18
2019-04-16T09:41:28.694Z,19.17
2019-04-16T09:42:28.655Z,19.17
2019-04-16T09:43:28.682Z,19.16
2019-04-16T09:44:31.025Z,19.17
2019-04-16T09:45:29.206Z,19.17
2019-04-16T09:46:49.436Z,19.16
2019-04-16T09:47:32.405Z,19.17
2019-04-16T09:48:34.063Z,19.16
2019-04-16T09:49:28.880Z,19.16
2019-04-16T09:50:28.796Z,19.15
2019-04-16T09:51:28.896Z,19.15
2019-04-16T09:52:28.700Z,19.15
2019-04-16T09:53:33.892Z,19.15
2019-04-16T09:54:28.631Z,19.14
2019-04-16T09:55:28.635Z,19.13
2019-04-16T09:56:29.814Z,19.13
2019-04-16T09:57:31.386Z,19.14
2019-04-16T09:58:28.618Z,19.13
2019-04-16T09:59:28.745Z,19.12
2019-04-16T10:00:28.850Z,19.13
2019-04-16T10:01:28.790Z,19.12
2019-04-16T10:02:28.757Z,19.13
2019-04-16T10:03:28.979Z,19.12
2019-04-16T10:04:28.848Z,19.12
2019-04-16T10:05:30.123Z,19.12
2019-04-16T10:06:29.086Z,19.11
2019-04-16T10:07:30.705Z,19.11
2019-04-16T10:08:29.410Z,19.1
2019-04-16T10:09:29.055Z,19.12
2019-04-16T10:10:29.105Z,19.11
2019-04-16T10:11:28.887Z,19.1
2019-04-16T10:12:28.589Z,19.11
2019-04-16T10:13:31.710Z,19.11
2019-04-16T10:14:28.470Z,19.1
2019-04-16T10:15:28.840Z,19.1
2019-04-16T10:16:28.616Z,19.1
2019-04-16T10:17:28.876Z,19.1
2019-04-16T10:18:28.613Z,19.09
2019-04-16T10:19:28.646Z,19.08
2019-04-16T10:20:28.835Z,19.08
2019-04-16T10:21:29.297Z,19.08
2019-04-16T10:22:28.603Z,19.08
2019-04-16T10:23:28.827Z,19.08
2019-04-16T10:24:28.625Z,19.07
2019-04-16T10:25:28.698Z,19.08
2019-04-16T10:26:28.842Z,19.08
2019-04-16T10:27:32.204Z,19.07
2019-04-16T10:28:29.146Z,19.07
2019-04-16T10:29:29.082Z,19.07
2019-04-16T10:30:30.147Z,19.07
2019-04-16T10:31:28.779Z,19.07
2019-04-16T10:32:28.777Z,19.06
2019-04-16T10:33:28.789Z,19.06
2019-04-16T10:34:28.595Z,19.06
2019-04-16T10:35:28.597Z,19.06
2019-04-16T10:36:28.642Z,19.06
2019-04-16T10:37:28.616Z,19.06
2019-04-16T10:38:28.574Z,19.06
2019-04-16T10:39:28.528Z,19.06
2019-04-16T10:40:29.043Z,19.05
2019-04-16T10:41:29.040Z,19.06
2019-04-16T10:42:28.571Z,19.06
2019-04-16T10:43:28.747Z,19.05
2019-04-16T10:44:28.982Z,19.06
2019-04-16T10:45:28.705Z,19.05
2019-04-16T10:46:28.603Z,19.05
2019-04-16T10:47:28.730Z,19.05
2019-04-16T10:48:28.755Z,19.04
2019-04-16T10:49:28.791Z,19.04
2019-04-16T10:50:28.735Z,19.03
2019-04-16T10:51:28.770Z,19.03
2019-04-16T10:52:28.794Z,19.03
2019-04-16T10:53:28.758Z,19.03
2019-04-16T10:54:28.771Z,19.03
2019-04-16T10:55:28.910Z,19.02
2019-04-16T10:56:28.524Z,19.02
2019-04-16T10:57:28.447Z,19.02
2019-04-16T10:58:28.593Z,19.02
2019-04-16T10:59:28.473Z,19.02
2019-04-16T11:00:28.753Z,19.02
2019-04-16T11:01:32.899Z,19.01
2019-04-16T11:02:28.922Z,19.02
2019-04-16T11:03:28.893Z,19.01
2019-04-16T11:04:28.539Z,19.01
2019-04-16T11:05:28.651Z,19
2019-04-16T11:06:28.526Z,19.01
2019-04-16T11:07:28.536Z,19
2019-04-16T11:08:28.590Z,19.01
2019-04-16T11:09:28.741Z,19
2019-04-16T11:10:28.706Z,19
2019-04-16T11:11:28.702Z,19
2019-04-16T11:12:28.755Z,19
2019-04-16T11:13:28.852Z,19
2019-04-16T11:14:28.727Z,19
2019-04-16T11:15:28.843Z,19
2019-04-16T11:16:29.086Z,18.99
2019-04-16T11:17:28.918Z,18.99
2019-04-16T11:18:28.743Z,18.99
2019-04-16T11:19:28.564Z,18.98
2019-04-16T11:20:28.552Z,18.99
2019-04-16T11:21:28.749Z,18.99
2019-04-16T11:22:28.560Z,18.99
2019-04-16T11:23:28.947Z,18.99
2019-04-16T11:24:29.651Z,18.99
2019-04-16T11:25:28.663Z,18.97
2019-04-16T11:26:28.616Z,18.97
2019-04-16T11:27:28.664Z,18.97
2019-04-16T11:28:28.694Z,18.97
2019-04-16T11:29:28.695Z,18.97
2019-04-16T11:30:28.558Z,18.97
2019-04-16T11:31:28.806Z,18.97
2019-04-16T11:32:28.684Z,18.96
2019-04-16T11:33:28.706Z,18.96
2019-04-16T11:34:28.894Z,18.96
2019-04-16T11:35:28.806Z,18.96
2019-04-16T11:36:30.887Z,18.96
2019-04-16T11:37:30.636Z,18.95
2019-04-16T11:38:28.544Z,18.96
2019-04-16T11:39:28.876Z,18.96
2019-04-16T11:40:28.590Z,18.96
2019-04-16T11:41:28.705Z,18.96
2019-04-16T11:42:28.531Z,18.97
2019-04-16T11:43:28.575Z,18.96
2019-04-16T11:44:28.648Z,18.96
2019-04-16T11:45:28.646Z,18.96
2019-04-16T11:46:28.555Z,18.96
2019-04-16T11:47:33.778Z,18.96
2019-04-16T11:48:28.610Z,18.96
2019-04-16T11:49:28.750Z,18.97
2019-04-16T11:50:28.539Z,18.95
2019-04-16T11:51:28.847Z,18.96
2019-04-16T11:52:28.831Z,18.96
2019-04-16T11:53:28.628Z,18.96
2019-04-16T11:54:28.602Z,18.96
2019-04-16T11:55:28.673Z,18.95
2019-04-16T11:56:28.798Z,18.96
2019-04-16T11:57:29.343Z,18.96
2019-04-16T11:58:28.712Z,18.96
2019-04-16T11:59:28.698Z,18.95
2019-04-16T12:00:28.803Z,18.96
2019-04-16T12:01:28.723Z,18.95
2019-04-16T12:02:28.820Z,18.95
2019-04-16T12:03:28.831Z,18.96
2019-04-16T12:04:28.819Z,18.95
2019-04-16T12:05:28.619Z,18.95
2019-04-16T12:06:29.052Z,18.95
2019-04-16T12:07:28.524Z,18.95
2019-04-16T12:08:28.580Z,18.95
2019-04-16T12:09:28.913Z,18.95
2019-04-16T12:10:28.563Z,18.94
2019-04-16T12:11:28.628Z,18.95
2019-04-16T12:12:28.711Z,18.95
2019-04-16T12:13:28.699Z,18.95
2019-04-16T12:14:30.939Z,18.95
2019-04-16T12:15:28.618Z,18.95
2019-04-16T12:16:28.704Z,18.95
2019-04-16T12:17:28.725Z,18.95
2019-04-16T12:18:31.784Z,18.93
2019-04-16T12:19:28.869Z,18.94
2019-04-16T12:20:28.798Z,18.93
2019-04-16T12:21:28.922Z,18.94
2019-04-16T12:22:28.538Z,18.94
2019-04-16T12:23:28.838Z,18.94
2019-04-16T12:24:28.745Z,18.94
2019-04-16T12:25:29.245Z,18.94
2019-04-16T12:26:28.569Z,18.94
2019-04-16T12:27:28.556Z,18.94
2019-04-16T12:28:28.769Z,18.95
2019-04-16T12:29:28.558Z,18.94
2019-04-16T12:30:28.625Z,18.94
2019-04-16T12:31:28.581Z,18.94
2019-04-16T12:32:28.651Z,18.93
2019-04-16T12:33:28.483Z,18.94
2019-04-16T12:34:28.628Z,18.93
2019-04-16T12:35:31.030Z,18.94
2019-04-16T12:36:28.675Z,18.94
2019-04-16T12:37:28.603Z,18.94
2019-04-16T12:38:28.561Z,18.93
2019-04-16T12:39:28.643Z,18.93
2019-04-16T12:40:28.866Z,18.93
2019-04-16T12:41:28.661Z,18.93
2019-04-16T12:42:28.541Z,18.93
2019-04-16T12:43:28.762Z,18.92
2019-04-16T12:44:44.080Z,18.93
2019-04-16T12:45:28.831Z,18.94
2019-04-16T12:46:28.718Z,18.92
2019-04-16T12:47:28.662Z,18.93
2019-04-16T12:48:28.629Z,18.93
2019-04-16T12:49:28.644Z,18.93
2019-04-16T12:50:29.235Z,18.92
2019-04-16T12:51:29.558Z,18.92
2019-04-16T12:52:28.481Z,18.92
2019-04-16T12:53:28.640Z,18.92
2019-04-16T12:54:28.789Z,18.94
2019-04-16T12:55:31.560Z,18.92
2019-04-16T12:56:28.669Z,18.92